Time;durP1;ratioP1;P1;durP2;ratioP2;P2;SDS_P1;SDS_P2;PMS_P1;PMS_P2;Temp;Humidity;BMP_temperature;BMP_pressure;BME280_temperature;BME280_humidity;BME280_pressure;Samples;Min_cycle;Max_cycle;Signal;HPM_P1;HPM_P2
2022/02/06 00:01:41;;;;;;;45.85;20.35;;;21.30;51.80;;;;;;20923115;28;20057;-48
2022/02/06 00:11:42;;;;;;;35.83;16.48;;;21.20;52.10;;;;;;20960580;28;20084;-47
2022/02/06 00:21:44;;;;;;;32.72;16.10;;;21.10;52.30;;;;;;20982371;28;20079;-48
2022/02/06 00:32:01;;;;;;;40.70;17.98;;;20.90;52.50;;;;;;20960403;28;20128;-48
2022/02/06 00:42:03;;;;;;;40.87;16.63;;;20.70;52.90;;;;;;20953895;28;20118;-47
2022/02/06 00:52:17;;;;;;;30.65;14.18;;;20.80;53.00;;;;;;20968112;28;20491;-48
2022/02/06 01:02:19;;;;;;;31.02;14.50;;;21.30;52.40;;;;;;20912960;28;20052;-46
2022/02/06 01:12:25;;;;;;;27.10;13.25;;;21.70;51.80;;;;;;20920686;28;20360;-47
2022/02/06 01:22:29;;;;;;;26.33;12.82;;;22.20;51.40;;;;;;20986331;28;20048;-46
2022/02/06 01:32:41;;;;;;;25.15;11.77;;;22.60;51.00;;;;;;20953677;28;20248;-46
2022/02/06 01:42:57;;;;;;;23.80;12.15;;;22.70;50.80;;;;;;20902235;28;20044;-46
2022/02/06 02:03:47;;;;;;;21.02;9.90;;;23.00;50.20;;;;;;20939560;28;20076;-46
2022/02/06 02:54:35;;;;;;;15.88;8.32;;;22.20;50.40;;;;;;20942744;28;20130;-48
2022/02/06 03:04:37;;;;;;;15.73;8.02;;;21.90;50.50;;;;;;20934220;28;20060;-47
2022/02/06 03:14:44;;;;;;;13.98;6.82;;;21.60;51.00;;;;;;20914343;28;20391;-47
2022/02/06 03:24:55;;;;;;;12.80;7.03;;;21.30;51.30;;;;;;20924995;28;20059;-47
2022/02/06 03:34:57;;;;;;;13.40;6.70;;;21.20;51.70;;;;;;20939080;28;20064;-47
2022/02/06 03:45:17;;;;;;;13.93;6.35;;;21.40;51.50;;;;;;20933918;28;20049;-47
2022/02/06 03:55:20;;;;;;;10.63;5.55;;;21.80;51.10;;;;;;20924606;28;20052;-47
2022/02/06 04:05:21;;;;;;;10.77;5.30;;;22.20;50.80;;;;;;20923471;28;20159;-48
2022/02/06 04:15:35;;;;;;;8.60;4.65;;;22.60;50.40;;;;;;20966381;28;20063;-47
2022/02/06 04:25:36;;;;;;;9.60;4.80;;;22.90;50.20;;;;;;20937277;28;20479;-48
2022/02/06 04:36:00;;;;;;;8.90;4.50;;;22.90;50.30;;;;;;20979254;28;20053;-47
2022/02/06 05:18:46;;;;;;;8.57;4.05;;;22.50;50.10;;;;;;20922901;28;20068;-47
2022/02/06 05:28:34;;;;;;;6.70;3.37;;;22.40;49.70;;;;;;20931661;28;20048;-47
2022/02/06 05:38:35;;;;;;;6.72;3.35;;;22.20;49.70;;;;;;20938784;28;20057;-47
2022/02/06 05:48:36;;;;;;;6.90;3.17;;;21.90;50.00;;;;;;20918036;28;20049;-48
2022/02/06 05:58:38;;;;;;;5.15;2.78;;;21.60;50.60;;;;;;20906778;28;20188;-47
2022/02/06 06:08:46;;;;;;;5.75;3.08;;;21.20;51.10;;;;;;20943527;28;20513;-47
2022/02/06 06:18:51;;;;;;;7.47;2.72;;;21.40;51.00;;;;;;20909789;28;20056;-47
2022/02/06 06:28:53;;;;;;;3.78;2.28;;;21.80;50.60;;;;;;20958896;28;20044;-47
2022/02/06 06:38:54;;;;;;;4.35;2.45;;;22.20;50.20;;;;;;20971182;28;20049;-47
2022/02/06 06:48:56;;;;;;;5.07;2.17;;;22.60;49.90;;;;;;20949078;28;20076;-48
2022/02/06 06:59:01;;;;;;;5.25;2.60;;;22.80;49.70;;;;;;20918631;28;20052;-48
2022/02/06 07:09:05;;;;;;;3.05;1.90;;;22.80;49.70;;;;;;20932096;28;20431;-47
2022/02/06 07:19:07;;;;;;;4.70;2.28;;;23.00;49.60;;;;;;20958964;28;20045;-47
2022/02/06 07:29:11;;;;;;;8.48;2.50;;;22.90;49.20;;;;;;20954854;28;20052;-47
2022/02/06 07:39:12;;;;;;;3.78;1.90;;;22.90;49.20;;;;;;20968736;28;20045;-48
2022/02/06 07:49:15;;;;;;;4.47;1.83;;;22.50;50.00;;;;;;20926508;28;20399;-47
2022/02/06 07:59:19;;;;;;;3.45;1.77;;;22.40;49.70;;;;;;20973711;28;20174;-50
2022/02/06 08:09:35;;;;;;;2.88;1.38;;;22.40;49.30;;;;;;20946206;28;20044;-51
2022/02/06 08:19:37;;;;;;;4.20;1.90;;;22.20;49.40;;;;;;20942429;28;20053;-50
2022/02/06 08:29:41;;;;;;;3.00;1.30;;;21.80;49.80;;;;;;20946566;28;20045;-50
2022/02/06 08:39:43;;;;;;;3.03;1.40;;;21.60;50.10;;;;;;20948139;28;20048;-48
2022/02/06 08:49:46;;;;;;;3.90;1.33;;;21.40;50.30;;;;;;20928993;28;20066;-50
2022/02/06 08:59:48;;;;;;;2.97;1.40;;;21.50;50.70;;;;;;20935597;28;20049;-53
2022/02/06 09:09:56;;;;;;;3.45;1.70;;;21.90;50.30;;;;;;20935522;28;20137;-48
2022/02/06 09:19:58;;;;;;;2.80;1.30;;;22.20;50.20;;;;;;20917151;28;20075;-50
2022/02/06 09:29:59;;;;;;;2.10;1.15;;;22.50;49.90;;;;;;20929998;28;20587;-49
2022/02/06 09:40:04;;;;;;;4.18;1.42;;;22.70;49.80;;;;;;20945362;28;20066;-49
2022/02/06 09:50:06;;;;;;;1.65;1.02;;;22.90;49.80;;;;;;20953609;28;20087;-49
2022/02/06 10:00:09;;;;;;;3.13;1.50;;;23.00;49.80;;;;;;20976100;28;20044;-48
2022/02/06 10:10:13;;;;;;;2.17;1.20;;;23.10;49.50;;;;;;20938804;28;20053;-48
2022/02/06 10:20:23;;;;;;;8.10;3.47;;;23.20;48.00;;;;;;20951684;28;20501;-48
2022/02/06 10:30:48;;;;;;;22.42;7.93;;;23.00;47.70;;;;;;20931060;28;20048;-48
2022/02/06 10:41:11;;;;;;;13.63;4.85;;;22.80;48.30;;;;;;20951757;28;20052;-47
2022/02/06 10:51:36;;;;;;;16.80;5.72;;;22.60;46.50;;;;;;20976815;28;20408;-48
2022/02/06 11:01:40;;;;;;;13.00;6.07;;;22.40;46.40;;;;;;20949515;28;20049;-49
2022/02/06 11:11:42;;;;;;;14.48;5.53;;;22.30;46.90;;;;;;20995013;28;20048;-50
2022/02/06 11:21:44;;;;;;;11.68;5.15;;;22.20;47.00;;;;;;20970318;28;20135;-48
2022/02/06 11:31:45;;;;;;;12.02;5.03;;;22.20;47.10;;;;;;20985208;28;20070;-48
2022/02/06 11:52:57;;;;;;;9.48;4.88;;;22.00;47.40;;;;;;20971103;28;20044;-49
2022/02/06 12:03:12;;;;;;;13.70;5.72;;;21.90;47.60;;;;;;20964693;28;20490;-49
2022/02/06 12:13:18;;;;;;;9.50;4.30;;;21.80;47.90;;;;;;20980052;28;20515;-49
2022/02/06 12:23:46;;;;;;;8.50;4.22;;;21.70;48.10;;;;;;20946159;28;20048;-49
2022/02/06 12:33:56;;;;;;;8.60;3.40;;;21.70;48.20;;;;;;20953730;28;20048;-49
2022/02/06 12:44:03;;;;;;;7.10;4.13;;;21.70;48.30;;;;;;20923446;28;20841;-50
2022/02/06 12:54:04;;;;;;;8.43;3.88;;;21.70;48.40;;;;;;20943112;28;20059;-49
2022/02/06 13:04:09;;;;;;;6.88;3.00;;;21.70;48.50;;;;;;20904346;28;20053;-49
2022/02/06 13:14:15;;;;;;;7.85;3.72;;;21.60;48.60;;;;;;20958018;28;20080;-48
2022/02/06 13:24:49;;;;;;;5.47;2.67;;;21.60;48.70;;;;;;20961554;28;20053;-49
2022/02/06 13:35:20;;;;;;;4.55;2.40;;;21.70;48.80;;;;;;20951557;28;20053;-49
2022/02/06 13:45:24;;;;;;;5.70;2.67;;;21.70;48.90;;;;;;20978663;28;20049;-49
2022/02/06 13:55:26;;;;;;;6.10;2.35;;;21.60;49.10;;;;;;20960998;28;20511;-49
2022/02/06 14:05:29;;;;;;;21.20;4.43;;;21.50;49.00;;;;;;20965744;28;20052;-49
2022/02/06 14:15:31;;;;;;;16.85;4.05;;;21.50;49.90;;;;;;20956697;28;20049;-49
2022/02/06 14:25:34;;;;;;;11.30;3.63;;;21.50;50.70;;;;;;20981683;28;20053;-48
2022/02/06 14:35:37;;;;;;;13.57;4.47;;;21.40;51.20;;;;;;20941863;28;20084;-48
2022/02/06 14:45:47;;;;;;;12.30;3.47;;;21.40;51.60;;;;;;20903788;28;20053;-48
2022/02/06 14:55:55;;;;;;;13.80;3.65;;;21.30;52.00;;;;;;20997303;28;20552;-48
2022/02/06 15:05:57;;;;;;;11.73;3.50;;;21.30;52.20;;;;;;20981823;28;20139;-47
2022/02/06 15:16:06;;;;;;;8.18;3.20;;;21.60;52.20;;;;;;20930344;28;20060;-49
2022/02/06 15:26:08;;;;;;;10.55;4.40;;;21.90;51.70;;;;;;20920965;28;20076;-47
2022/02/06 15:36:10;;;;;;;11.45;4.32;;;22.20;50.00;;;;;;20990669;28;20137;-47
2022/02/06 15:46:11;;;;;;;19.38;5.05;;;22.30;50.00;;;;;;20968623;28;20052;-46
2022/02/06 15:56:13;;;;;;;24.00;5.68;;;22.50;49.90;;;;;;20937650;28;20081;-47
2022/02/06 16:06:14;;;;;;;13.05;4.78;;;22.60;50.10;;;;;;20940147;28;20211;-47
2022/02/06 16:16:16;;;;;;;15.10;5.43;;;22.50;50.60;;;;;;20932091;28;20064;-54
2022/02/06 16:26:17;;;;;;;19.08;5.43;;;22.40;51.30;;;;;;20942383;28;20434;-52
2022/02/06 16:36:19;;;;;;;15.40;5.05;;;22.30;51.70;;;;;;20967861;28;20433;-51
2022/02/06 16:46:21;;;;;;;15.27;4.75;;;22.40;51.40;;;;;;20953801;28;20131;-52
2022/02/06 16:56:23;;;;;;;15.27;4.85;;;22.40;51.80;;;;;;20917560;28;20080;-52
2022/02/06 17:06:24;;;;;;;11.85;4.38;;;22.30;52.20;;;;;;20932467;28;20075;-52
2022/02/06 17:16:26;;;;;;;10.18;4.28;;;22.20;52.40;;;;;;20904505;28;20052;-52
2022/02/06 17:26:27;;;;;;;8.98;3.60;;;22.20;52.70;;;;;;20924111;28;20384;-53
2022/02/06 17:36:28;;;;;;;11.70;4.22;;;22.10;53.10;;;;;;20942050;28;20048;-55
2022/02/06 17:46:32;;;;;;;9.52;4.25;;;22.00;53.20;;;;;;20921563;28;20047;-54
2022/02/06 17:56:37;;;;;;;8.07;3.65;;;21.90;53.40;;;;;;20922171;28;20063;-53
2022/02/06 18:06:38;;;;;;;7.47;3.65;;;21.70;53.70;;;;;;20937784;28;20052;-49
2022/02/06 18:16:40;;;;;;;9.43;4.00;;;21.50;53.90;;;;;;20953591;28;20044;-53
2022/02/06 18:26:41;;;;;;;7.20;4.28;;;21.40;54.20;;;;;;20956125;28;20481;-53
2022/02/06 18:36:43;;;;;;;9.85;4.15;;;21.20;51.50;;;;;;20986733;28;20088;-54
2022/02/06 18:46:46;;;;;;;9.55;4.40;;;21.20;51.50;;;;;;20970152;28;20502;-54
2022/02/06 18:56:48;;;;;;;10.23;3.97;;;;;;;;;;20974881;28;20132;-56
2022/02/06 19:06:51;;;;;;;9.07;4.40;;;21.20;52.40;;;;;;20940957;28;20476;-55
2022/02/06 19:16:52;;;;;;;11.82;4.95;;;21.10;52.70;;;;;;20938915;28;20053;-55
2022/02/06 19:26:54;;;;;;;13.70;6.18;;;21.10;53.00;;;;;;20929236;28;20097;-53
2022/02/06 19:36:56;;;;;;;10.98;7.65;;;21.10;53.40;;;;;;20975156;28;20061;-54
2022/02/06 19:46:58;;;;;;;16.27;7.20;;;21.00;53.90;;;;;;20915148;28;20476;-54
2022/02/06 19:57:00;;;;;;;11.02;6.63;;;21.00;54.40;;;;;;20911614;28;20124;-55
2022/02/06 20:07:02;;;;;;;12.32;6.25;;;21.00;54.70;;;;;;20944246;28;20135;-56
2022/02/06 20:17:04;;;;;;;16.75;6.10;;;20.90;54.80;;;;;;20960656;28;20143;-55
2022/02/06 20:27:05;;;;;;;16.20;5.72;;;20.80;55.10;;;;;;20975162;28;20064;-52
2022/02/06 20:37:07;;;;;;;13.77;5.45;;;20.90;55.50;;;;;;20940588;28;20415;-51
2022/02/06 20:47:10;;;;;;;10.63;5.70;;;20.80;55.80;;;;;;20922235;28;20048;-52
2022/02/06 20:57:12;;;;;;;9.63;4.65;;;20.70;55.90;;;;;;20951375;28;20553;-51
2022/02/06 21:07:14;;;;;;;8.05;4.68;;;20.70;56.10;;;;;;20942394;28;20107;-51
2022/02/06 21:17:15;;;;;;;9.30;4.55;;;20.70;56.20;;;;;;20931645;28;20040;-51
2022/02/06 21:27:18;;;;;;;10.60;4.25;;;20.60;56.50;;;;;;20937435;28;20067;-51
2022/02/06 21:37:19;;;;;;;7.57;3.58;;;20.60;56.70;;;;;;20953362;28;20049;-52
2022/02/06 21:47:22;;;;;;;8.70;3.95;;;20.50;56.80;;;;;;20934286;28;20380;-51
2022/02/06 21:57:24;;;;;;;5.75;3.50;;;20.50;56.70;;;;;;20925863;28;20155;-51
2022/02/06 22:07:55;;;;;;;6.75;3.75;;;20.40;56.70;;;;;;20927646;28;20131;-55
2022/02/06 22:38:46;;;;;;;14.38;5.82;;;20.30;57.00;;;;;;20958005;28;20082;-53
2022/02/06 22:48:47;;;;;;;15.57;5.53;;;20.30;56.90;;;;;;20932596;28;20091;-52
2022/02/06 22:58:49;;;;;;;14.30;4.45;;;20.20;56.90;;;;;;20943452;28;20519;-52
2022/02/06 23:08:52;;;;;;;12.60;4.65;;;20.20;57.00;;;;;;20926088;28;20098;-54
2022/02/06 23:18:54;;;;;;;13.63;4.55;;;20.20;57.00;;;;;;20948459;28;20063;-54
2022/02/06 23:28:56;;;;;;;10.10;4.32;;;20.20;57.00;;;;;;20965623;28;20470;-54
2022/02/06 23:38:58;;;;;;;9.20;3.88;;;20.10;57.00;;;;;;20960775;28;20143;-53
2022/02/06 23:49:02;;;;;;;7.60;4.18;;;20.10;57.00;;;;;;20944448;28;20040;-54
2022/02/06 23:59:12;;;;;;;8.25;3.53;;;20.00;57.00;;;;;;20936901;28;20481;-51
